CYRB

Resolute Bay Airport

Resolute Bay, Canada
METAR CYRB 212000Z 35006KT 10SM -SN BKN040 M14/M16 A3004 RMK SC7 SLP183
Observed Flight Rules
Oct-21 @ 20:00 UTC (an hour ago) Visual Flight Rules
Wind Visibility Clouds Conditions
350° at 6 knots 10 miles
  • Broken at 4,000' AGL
  • Light Snow
Temperatures Readings
Current -14°C / 7°F
Dewpoint -16°C / 3°F
Humidity 85%
Altimeter 30.04" Hg
Pressure 1018.3 hPa
Elevation 67
METAR CYRB 212000Z 35006KT 10SM -SN BKN040 M14/M16 A3004 RMK SC7 SLP183
Observed Flight Rules
Oct-21 @ 20:00 UTC
(an hour ago)
VFR
Wind Visibility
350° at 6 knots 10 miles
Clouds
  • Broken at 4,000' AGL
Conditions
  • Light Snow
Temperature Dewpoint
-14°C / 7°F -16°C / 3°F
Humidity Altimeter Pressure
85% 30.04" Hg 1018.3 hPa